Time;durP1;ratioP1;P1;durP2;ratioP2;P2;SDS_P1;SDS_P2;PMS_P1;PMS_P2;Temp;Humidity;BMP_temperature;BMP_pressure;BME280_temperature;BME280_humidity;BME280_pressure;Samples;Min_cycle;Max_cycle;Signal;HPM_P1;HPM_P2
2023/10/09 00:03:03;;;;;;;14.05;3.97;;;;;;;17.91;47.97;100642.19;4931879;29;20035;-81
2023/10/09 00:08:16;;;;;;;8.50;3.47;;;;;;;17.86;48.24;100654.75;4915394;29;20036;-86
2023/10/09 00:10:57;;;;;;;9.30;3.10;;;;;;;17.86;48.51;100652.09;4915409;29;20392;-78
2023/10/09 00:13:30;;;;;;;8.68;3.30;;;;;;;17.83;48.42;100649.53;4915613;29;20121;-83
2023/10/09 00:16:47;;;;;;;13.35;3.45;;;;;;;17.76;49.41;100646.16;4915206;29;20020;-79
2023/10/09 00:19:30;;;;;;;7.63;3.13;;;;;;;17.71;48.95;100656.06;4914478;29;20044;-84
2023/10/09 00:21:56;;;;;;;8.83;3.83;;;;;;;17.69;48.86;100650.78;4915051;29;20430;-84
2023/10/09 00:24:24;;;;;;;9.75;3.50;;;;;;;17.68;49.27;100649.03;4909720;29;20194;-81
2023/10/09 00:27:11;;;;;;;10.45;3.40;;;;;;;17.66;50.15;100645.53;4914840;29;20462;-85
2023/10/09 00:29:42;;;;;;;8.60;3.67;;;;;;;17.63;49.24;100649.19;4915191;29;20028;-79
2023/10/09 00:32:13;;;;;;;10.13;3.40;;;;;;;17.61;49.47;100647.47;4915066;29;20044;-79
2023/10/09 00:34:42;;;;;;;9.73;3.40;;;;;;;17.58;49.63;100648.41;4915011;29;20055;-79
2023/10/09 00:37:34;;;;;;;9.75;3.47;;;;;;;17.55;49.74;100643.16;4915068;29;20391;-79
2023/10/09 00:39:57;;;;;;;9.85;3.30;;;;;;;17.50;49.84;100645.09;4914078;29;20040;-81
2023/10/09 00:42:32;;;;;;;9.73;3.47;;;;;;;17.47;50.12;100646.03;4914507;29;20024;-79
2023/10/09 00:45:04;;;;;;;10.40;3.50;;;;;;;17.42;50.29;100642.63;4914716;29;20508;-78
2023/10/09 00:47:34;;;;;;;9.95;3.60;;;;;;;17.39;50.59;100640.03;4914663;29;20381;-79
2023/10/09 00:53:01;;;;;;;11.30;4.00;;;;;;;17.33;51.05;100632.22;4933584;29;20126;-79
2023/10/09 00:55:45;;;;;;;9.35;3.50;;;;;;;17.30;50.78;100640.28;4929217;29;20168;-80
2023/10/09 00:58:16;;;;;;;10.35;3.60;;;;;;;17.27;51.07;100643.91;4933391;29;20474;-79
2023/10/09 01:00:45;;;;;;;9.18;3.80;;;;;;;17.25;51.04;100639.53;4933282;29;20075;-79
2023/10/09 01:05:56;;;;;;;10.67;3.50;;;;;;;17.16;51.58;100646.84;4914301;29;20036;-83
2023/10/09 01:11:08;;;;;;;11.05;3.60;;;;;;;17.12;51.54;100641.63;4898770;29;20054;-79
2023/10/09 01:13:52;;;;;;;10.23;3.88;;;;;;;17.07;51.98;100649.75;4914088;29;20028;-78
2023/10/09 01:16:23;;;;;;;9.73;3.55;;;;;;;17.07;51.70;100645.28;4914038;29;20039;-78
2023/10/09 01:18:50;;;;;;;9.90;3.37;;;;;;;17.05;51.75;100635.59;4913669;29;20032;-78
2023/10/09 01:21:17;;;;;;;8.75;3.60;;;;;;;17.02;51.96;100638.34;4913758;29;20504;-79
2023/10/09 01:24:07;;;;;;;10.63;3.63;;;;;;;17.00;52.02;100635.72;4913938;29;20028;-80
2023/10/09 01:26:46;;;;;;;8.13;3.58;;;;;;;16.96;52.17;100635.78;4913360;29;20481;-79
2023/10/09 01:29:21;;;;;;;8.75;3.90;;;;;;;16.93;52.29;100639.41;4913976;29;20035;-80
2023/10/09 01:31:56;;;;;;;8.77;3.23;;;;;;;16.88;52.46;100636.84;4913721;29;20424;-82
2023/10/09 01:34:32;;;;;;;14.15;3.88;;;;;;;16.86;52.55;100635.13;4913394;29;20481;-83
2023/10/09 01:36:59;;;;;;;7.93;3.38;;;;;;;16.83;52.67;100638.75;4913690;29;20032;-78
2023/10/09 01:39:30;;;;;;;8.57;3.65;;;;;;;16.81;52.60;100635.25;4913575;29;20481;-78
2023/10/09 01:41:59;;;;;;;9.93;3.75;;;;;;;16.76;53.15;100631.84;4913292;29;20111;-80
2023/10/09 01:44:34;;;;;;;7.57;2.93;;;;;;;16.74;52.81;100634.53;4921523;29;20027;-82
2023/10/09 01:47:07;;;;;;;8.27;3.47;;;;;;;16.70;53.22;100637.28;4932816;29;20031;-79
2023/10/09 01:49:35;;;;;;;12.43;4.05;;;;;;;16.70;52.80;100640.84;4932037;29;20247;-79
2023/10/09 01:52:10;;;;;;;8.60;3.30;;;;;;;16.66;52.88;100633.84;4932500;29;20047;-79
2023/10/09 01:54:37;;;;;;;11.60;3.65;;;;;;;16.64;53.12;100644.50;4932845;29;20039;-78
2023/10/09 01:57:09;;;;;;;11.53;3.80;;;;;;;16.60;53.51;100637.50;4927379;29;20488;-78
2023/10/09 01:59:38;;;;;;;10.63;3.40;;;;;;;16.56;53.19;100638.50;4932139;29;20119;-78
2023/10/09 02:02:12;;;;;;;10.50;3.60;;;;;;;16.54;53.05;100624.38;4931553;29;20485;-78
2023/10/09 02:04:40;;;;;;;13.05;3.35;;;;;;;16.52;53.21;100638.59;4917224;29;20032;-78
2023/10/09 02:07:08;;;;;;;9.75;3.53;;;;;;;16.47;53.57;100642.25;4913328;29;20123;-78
2023/10/09 02:09:34;;;;;;;9.73;3.50;;;;;;;16.44;53.67;100644.97;4895924;29;20100;-82
2023/10/09 02:12:00;;;;;;;8.68;3.40;;;;;;;16.42;53.70;100643.25;4913029;29;20028;-79
2023/10/09 02:14:27;;;;;;;9.40;3.58;;;;;;;16.40;53.78;100640.63;4912989;29;20047;-83
2023/10/09 02:19:51;;;;;;;8.85;3.75;;;;;;;16.32;54.12;100637.25;4880358;29;20382;-79
2023/10/09 02:22:17;;;;;;;8.30;3.50;;;;;;;16.30;54.03;100644.38;4896456;29;20505;-79
2023/10/09 02:24:59;;;;;;;9.68;3.58;;;;;;;16.27;54.16;100642.66;4913891;29;20028;-78
2023/10/09 02:27:45;;;;;;;8.07;3.33;;;;;;;16.23;54.25;100646.28;4914654;29;20064;-78
2023/10/09 02:30:26;;;;;;;7.90;3.63;;;;;;;16.20;54.58;100649.03;4912626;29;20040;-80
2023/10/09 02:33:06;;;;;;;8.75;3.42;;;;;;;16.17;54.28;100649.09;4912325;29;20501;-78
2023/10/09 02:35:37;;;;;;;10.55;3.33;;;;;;;16.16;54.52;100650.00;4913017;29;20043;-79
2023/10/09 02:38:06;;;;;;;11.07;3.40;;;;;;;16.13;54.42;100650.94;4912593;29;20044;-78
2023/10/09 02:40:32;;;;;;;11.88;3.60;;;;;;;16.11;54.52;100652.75;4912801;29;20036;-78
2023/10/09 02:42:58;;;;;;;9.60;3.50;;;;;;;16.10;54.60;100656.31;4912557;29;20106;-79
2023/10/09 02:45:24;;;;;;;9.55;3.33;;;;;;;16.10;54.57;100656.31;4928456;29;20038;-79
2023/10/09 02:47:51;;;;;;;8.95;3.08;;;;;;;16.06;54.64;100651.97;4931408;29;20436;-79
2023/10/09 02:50:20;;;;;;;8.27;3.37;;;;;;;16.05;54.79;100658.19;4931826;29;20087;-80
2023/10/09 02:52:47;;;;;;;9.63;3.67;;;;;;;16.02;54.79;100664.44;4931752;29;20034;-81
2023/10/09 02:55:25;;;;;;;10.18;3.58;;;;;;;16.00;55.04;100658.28;4927628;29;20125;-80
2023/10/09 02:58:04;;;;;;;8.85;3.30;;;;;;;15.95;55.04;100664.59;4893737;29;20152;-79
2023/10/09 03:00:31;;;;;;;10.25;3.80;;;;;;;15.91;54.94;100664.69;4894261;29;20032;-80
2023/10/09 03:02:58;;;;;;;10.43;3.70;;;;;;;15.83;55.37;100666.56;4898705;29;20033;-79
2023/10/09 03:05:27;;;;;;;10.38;3.67;;;;;;;15.75;55.81;100666.69;4916404;29;20115;-78
2023/10/09 03:07:53;;;;;;;9.57;3.33;;;;;;;15.67;55.97;100665.97;4916546;29;20561;-82
2023/10/09 03:10:19;;;;;;;9.57;3.53;;;;;;;15.64;55.92;100672.19;4916186;29;20027;-79
2023/10/09 03:12:44;;;;;;;8.83;3.33;;;;;;;15.65;55.98;100673.09;4916043;29;20519;-84
2023/10/09 03:15:11;;;;;;;11.50;3.55;;;;;;;15.64;55.82;100668.69;4916449;29;20028;-79
2023/10/09 03:17:36;;;;;;;9.97;3.40;;;;;;;15.65;55.88;100668.66;4915924;29;20104;-78
2023/10/09 03:20:17;;;;;;;8.93;3.60;;;;;;;15.64;55.95;100671.34;4916122;29;20489;-78
2023/10/09 03:22:44;;;;;;;9.07;3.80;;;;;;;15.62;55.93;100673.16;4916039;29;20272;-78
2023/10/09 03:25:13;;;;;;;10.45;3.78;;;;;;;15.61;56.28;100676.72;4915866;29;20035;-78
2023/10/09 03:27:47;;;;;;;9.85;3.80;;;;;;;15.59;56.29;100670.56;4916081;29;20035;-81
2023/10/09 03:30:22;;;;;;;8.45;3.53;;;;;;;15.57;56.37;100665.28;4916355;29;20032;-81
2023/10/09 03:32:50;;;;;;;11.30;4.18;;;;;;;15.55;55.93;100674.16;4915446;29;20496;-82
2023/10/09 03:35:25;;;;;;;11.00;4.40;;;;;;;15.55;56.13;100679.47;4916151;29;20386;-79
2023/10/09 03:38:16;;;;;;;12.60;3.85;;;;;;;15.50;56.30;100680.41;4917456;29;20027;-78
2023/10/09 03:40:42;;;;;;;10.73;3.80;;;;;;;15.43;56.26;100681.44;4915939;29;20066;-79
2023/10/09 03:43:13;;;;;;;9.85;3.70;;;;;;;15.38;56.33;100678.00;4915607;29;20024;-82
2023/10/09 03:45:45;;;;;;;10.25;3.63;;;;;;;15.34;56.61;100684.28;4915669;29;20046;-78
2023/10/09 03:48:20;;;;;;;8.73;3.60;;;;;;;15.33;56.61;100687.81;4915443;29;20031;-84
2023/10/09 03:50:46;;;;;;;8.52;3.70;;;;;;;15.30;56.72;100679.88;4934970;29;20279;-81
2023/10/09 03:53:12;;;;;;;9.18;3.65;;;;;;;15.29;56.71;100686.09;4935142;29;20111;-78
2023/10/09 03:55:40;;;;;;;8.40;3.47;;;;;;;15.26;56.79;100681.75;4929986;29;20019;-78
2023/10/09 03:58:06;;;;;;;11.30;4.00;;;;;;;15.28;56.83;100684.34;4934217;29;20036;-78
2023/10/09 04:00:40;;;;;;;8.75;3.30;;;;;;;15.26;57.00;100680.84;4930312;29;20473;-79
2023/10/09 04:03:06;;;;;;;8.93;3.58;;;;;;;15.22;56.96;100680.03;4912351;29;20552;-79
2023/10/09 04:05:32;;;;;;;8.77;3.43;;;;;;;15.18;56.84;100681.88;4896377;29;20116;-82
2023/10/09 04:08:01;;;;;;;9.13;3.42;;;;;;;15.16;56.95;100688.97;4904359;29;20127;-82
2023/10/09 04:10:50;;;;;;;9.65;3.33;;;;;;;15.13;57.05;100690.78;4915384;29;20040;-80
2023/10/09 04:13:22;;;;;;;11.30;3.80;;;;;;;15.07;57.31;100691.75;4897846;29;20391;-78
2023/10/09 04:15:49;;;;;;;11.50;3.67;;;;;;;15.06;57.37;100687.34;4915058;29;20485;-79
2023/10/09 04:18:15;;;;;;;10.20;3.40;;;;;;;15.04;57.50;100694.47;4914763;29;20055;-78
2023/10/09 04:23:16;;;;;;;12.45;3.72;;;;;;;15.02;57.46;100693.59;4915084;29;20058;-81
2023/10/09 04:25:41;;;;;;;10.87;3.27;;;;;;;15.00;57.52;100684.81;4914900;29;20469;-78
2023/10/09 04:28:09;;;;;;;9.15;3.70;;;;;;;14.97;57.72;100680.44;4913988;29;20028;-83
2023/10/09 04:30:46;;;;;;;11.43;3.72;;;;;;;14.95;57.78;100687.56;4915096;29;20088;-83
2023/10/09 04:33:28;;;;;;;12.45;4.07;;;;;;;14.92;57.92;100683.16;4914608;29;20051;-83
2023/10/09 04:36:21;;;;;;;10.83;3.80;;;;;;;14.90;58.63;100684.97;4915046;29;20036;-79
2023/10/09 04:44:29;;;;;;;10.25;4.13;;;;;;;14.82;58.10;100684.19;4915096;29;20028;-79
2023/10/09 04:50:02;;;;;;;11.70;3.67;;;;;;;14.79;58.39;100684.22;4933731;29;20036;-79
2023/10/09 04:55:15;;;;;;;11.38;3.90;;;;;;;14.77;58.37;100678.97;4931963;29;20032;-79
2023/10/09 05:03:12;;;;;;;11.57;3.80;;;;;;;14.74;58.58;100689.63;4898428;29;20123;-83
2023/10/09 05:08:19;;;;;;;13.02;4.00;;;;;;;14.74;58.59;100699.34;4915429;29;20075;-82
2023/10/09 05:16:32;;;;;;;12.73;3.60;;;;;;;14.73;58.83;100709.06;4916267;29;20083;-79
2023/10/09 05:19:06;;;;;;;10.05;4.28;;;;;;;14.70;58.91;100708.19;4913755;29;20091;-79
2023/10/09 05:21:36;;;;;;;11.18;3.78;;;;;;;14.63;59.51;100710.94;4914128;29;20028;-82
2023/10/09 05:29:19;;;;;;;12.67;3.97;;;;;;;14.59;59.17;100717.19;4914013;29;20032;-83
2023/10/09 05:34:34;;;;;;;12.32;3.65;;;;;;;14.58;59.23;100710.09;4914193;29;20120;-78
2023/10/09 05:37:16;;;;;;;12.07;3.58;;;;;;;14.54;59.48;100711.03;4913819;29;20119;-84
2023/10/09 05:40:08;;;;;;;11.50;3.63;;;;;;;14.51;59.33;100713.75;4913612;29;20028;-82
2023/10/09 05:47:56;;;;;;;10.85;3.88;;;;;;;14.43;59.76;100712.97;4932408;29;20126;-83
2023/10/09 06:08:26;;;;;;;13.87;3.77;;;;;;;14.26;60.04;100737.91;4913582;29;20197;-83
2023/10/09 06:11:38;;;;;;;12.45;4.00;;;;;;;14.26;60.18;100743.19;4912762;29;20024;-77
2023/10/09 06:13:45;;;;;;;13.15;3.80;;;;;;;14.26;60.00;100751.13;4906052;29;20513;-74
2023/10/09 06:16:29;;;;;;;13.35;3.90;;;;;;;14.26;60.31;100748.50;4913492;29;20063;-77
2023/10/09 06:19:07;;;;;;;9.77;3.42;;;;;;;14.25;60.19;100745.88;4912867;29;20034;-79
2023/10/09 06:24:33;;;;;;;12.88;3.50;;;;;;;14.28;60.32;100745.84;4887040;29;20417;-83
2023/10/09 06:34:45;;;;;;;11.07;3.87;;;;;;;14.39;60.33;100756.31;4914125;29;20073;-85
2023/10/09 06:38:21;;;;;;;8.45;3.42;;;;;;;14.37;60.45;100756.31;4912150;29;20028;-75
2023/10/09 06:42:57;;;;;;;9.30;3.45;;;;;;;14.39;60.52;100753.66;4844470;29;20087;-85
2023/10/09 06:45:28;;;;;;;10.63;4.20;;;;;;;14.43;60.41;100761.53;4928518;29;20035;-84
2023/10/09 06:47:55;;;;;;;12.77;3.65;;;;;;;14.48;60.67;100761.47;4929563;29;20031;-83
2023/10/09 06:50:24;;;;;;;15.65;4.03;;;;;;;14.50;60.79;100757.03;4919830;29;20029;-83
2023/10/09 06:56:22;;;;;;;11.82;3.53;;;;;;;14.50;61.81;100765.00;4909145;29;20080;-80
2023/10/09 06:58:41;;;;;;;14.32;4.72;;;;;;;14.44;62.48;100760.63;4920537;29;20039;-77
2023/10/09 07:01:19;;;;;;;14.57;4.80;;;;;;;14.42;62.80;100772.16;4930684;29;20083;-80
2023/10/09 07:03:59;;;;;;;12.00;4.10;;;;;;;14.34;63.91;100769.59;4912388;29;20033;-80
2023/10/09 07:15:01;;;;;;;18.55;3.88;;;;;;;14.40;64.22;100773.97;4931918;29;20615;-85
2023/10/09 07:17:52;;;;;;;12.43;4.00;;;;;;;14.52;64.13;100776.44;4931101;29;20036;-81
2023/10/09 07:24:57;;;;;;;11.60;4.18;;;;;;;15.23;62.59;100776.41;4927430;29;20039;-85
2023/10/09 07:35:47;;;;;;;12.00;4.00;;;;;;;16.02;61.65;100783.09;4911491;29;20108;-81
2023/10/09 07:38:19;;;;;;;10.48;3.20;;;;;;;16.17;61.23;100782.84;4911633;29;20784;-83
2023/10/09 07:43:39;;;;;;;8.70;3.57;;;;;;;16.50;60.67;100783.06;4912920;29;20043;-84
2023/10/09 07:48:52;;;;;;;9.90;3.58;;;;;;;16.92;59.44;100781.31;4914823;29;20043;-83
2023/10/09 07:51:31;;;;;;;11.27;4.03;;;;;;;17.06;59.04;100778.38;4925750;29;20111;-78
2023/10/09 07:54:06;;;;;;;13.27;3.87;;;;;;;17.19;58.66;100785.13;4916831;29;20028;-84
2023/10/09 07:56:45;;;;;;;10.40;3.72;;;;;;;17.30;58.50;100789.34;4925771;29;20020;-84
2023/10/09 07:59:11;;;;;;;9.63;3.63;;;;;;;17.38;58.27;100790.03;4934581;29;20032;-84
2023/10/09 08:02:02;;;;;;;9.98;3.70;;;;;;;17.49;58.02;100787.13;4918634;29;20055;-84
2023/10/09 08:04:38;;;;;;;14.68;3.60;;;;;;;17.66;57.57;100789.34;4914680;29;20516;-81
2023/10/09 08:07:34;;;;;;;10.27;3.73;;;;;;;17.76;57.13;100790.88;4915040;29;20092;-84
2023/10/09 08:15:26;;;;;;;9.27;3.15;;;;;;;18.46;55.82;100788.19;4915025;29;20035;-84
2023/10/09 08:18:03;;;;;;;8.32;3.35;;;;;;;18.65;55.52;100786.69;4914146;29;20047;-84
2023/10/09 08:23:22;;;;;;;8.52;2.90;;;;;;;19.02;54.84;100783.88;4917607;29;20039;-76
2023/10/09 08:26:12;;;;;;;8.52;2.90;;;;;;;19.21;54.59;100774.38;4909751;29;20025;-75
2023/10/09 08:31:18;;;;;;;8.15;3.05;;;;;;;19.63;53.17;100786.38;4914784;29;20124;-84
2023/10/09 08:33:44;;;;;;;7.70;2.80;;;;;;;19.85;53.07;100788.31;4914325;29;20529;-85
2023/10/09 08:36:14;;;;;;;11.20;2.97;;;;;;;20.02;52.87;100787.75;4914785;29;20035;-86
2023/10/09 08:38:41;;;;;;;8.17;3.27;;;;;;;20.22;52.09;100778.16;4915065;29;20401;-82
2023/10/09 08:41:17;;;;;;;9.63;2.83;;;;;;;20.40;52.04;100781.09;4897605;29;20084;-83
2023/10/09 08:43:53;;;;;;;7.90;3.10;;;;;;;20.48;51.36;100782.53;4916447;29;20035;-80
2023/10/09 08:46:26;;;;;;;8.90;3.13;;;;;;;20.64;50.57;100784.63;4933010;29;20046;-78
2023/10/09 08:48:55;;;;;;;10.32;2.70;;;;;;;20.84;51.21;100789.25;4927797;29;20078;-77
2023/10/09 08:51:22;;;;;;;9.03;2.70;;;;;;;21.00;50.65;100785.97;4898200;29;20029;-85
2023/10/09 08:53:47;;;;;;;14.00;3.17;;;;;;;21.06;50.26;100775.00;4914177;29;20024;-85
2023/10/09 08:56:23;;;;;;;9.70;2.80;;;;;;;21.20;50.28;100775.34;4897393;29;20119;-87
2023/10/09 08:58:56;;;;;;;11.50;3.23;;;;;;;21.28;50.28;100777.72;4914349;29;20043;-87
2023/10/09 09:01:22;;;;;;;8.55;2.50;;;;;;;21.50;49.65;100780.38;4914544;29;20084;-87
2023/10/09 09:03:50;;;;;;;8.73;2.72;;;;;;;21.68;49.38;100771.66;4913901;29;20547;-88
2023/10/09 09:06:19;;;;;;;8.88;3.33;;;;;;;21.91;48.75;100770.66;4914288;29;20099;-88
2023/10/09 09:08:44;;;;;;;13.35;3.75;;;;;;;22.05;48.64;100765.56;4913909;29;20032;-88
2023/10/09 09:11:12;;;;;;;7.83;3.43;;;;;;;22.21;48.45;100759.53;4914411;29;20032;-87
2023/10/09 09:13:42;;;;;;;9.30;3.60;;;;;;;22.29;48.64;100767.22;4914192;29;20024;-88
2023/10/09 09:16:29;;;;;;;10.88;3.25;;;;;;;22.33;47.87;100767.03;4913889;29;20505;-86
2023/10/09 09:19:04;;;;;;;7.88;3.05;;;;;;;22.48;47.81;100768.16;4913043;29;20051;-87
2023/10/09 09:21:38;;;;;;;6.63;2.50;;;;;;;22.65;47.28;100763.81;4913978;29;20115;-87
2023/10/09 09:24:15;;;;;;;11.38;2.65;;;;;;;22.82;47.53;100757.66;4896990;29;20107;-87
2023/10/09 09:26:45;;;;;;;11.77;3.25;;;;;;;22.99;46.72;100755.97;4913677;29;20035;-86
2023/10/09 09:29:18;;;;;;;7.65;2.70;;;;;;;23.14;46.66;100752.53;4913968;29;20044;-87
2023/10/09 09:31:57;;;;;;;11.50;2.80;;;;;;;23.23;46.33;100749.38;4913166;29;20148;-86
2023/10/09 09:34:25;;;;;;;7.60;2.83;;;;;;;23.49;45.48;100749.06;4913457;29;20080;-85
2023/10/09 09:36:55;;;;;;;10.73;2.97;;;;;;;23.70;45.28;100746.25;4913629;29;20072;-86
2023/10/09 09:39:28;;;;;;;10.60;3.22;;;;;;;23.72;45.41;100753.25;4913138;29;20050;-86
2023/10/09 09:42:07;;;;;;;7.68;2.70;;;;;;;23.89;45.23;100744.34;4914125;29;20031;-88
2023/10/09 09:44:46;;;;;;;11.20;2.67;;;;;;;23.99;44.81;100747.38;4920675;29;20497;-87
2023/10/09 09:47:27;;;;;;;9.30;2.50;;;;;;;24.17;44.79;100744.72;4911830;29;20080;-88
2023/10/09 09:50:00;;;;;;;7.22;2.55;;;;;;;24.34;44.57;100735.72;4912155;29;20497;-87
2023/10/09 09:52:37;;;;;;;10.02;3.10;;;;;;;24.56;43.47;100734.53;4913992;29;20088;-87
2023/10/09 09:55:14;;;;;;;9.32;3.17;;;;;;;24.74;42.79;100735.34;4912510;29;20111;-88
2023/10/09 09:57:40;;;;;;;8.80;2.88;;;;;;;24.83;42.76;100737.53;4933197;29;20032;-76
2023/10/09 10:00:28;;;;;;;12.17;3.40;;;;;;;24.97;42.47;100733.22;4916681;29;20213;-86
2023/10/09 10:02:57;;;;;;;12.55;3.25;;;;;;;25.19;42.31;100738.22;4931003;29;20062;-84
2023/10/09 10:05:29;;;;;;;9.75;3.00;;;;;;;25.36;41.89;100726.44;4913326;29;20063;-85
2023/10/09 10:07:57;;;;;;;9.82;2.42;;;;;;;25.37;41.91;100722.78;4912776;29;20032;-76
2023/10/09 10:10:47;;;;;;;11.15;3.20;;;;;;;25.49;41.29;100719.41;4912090;29;20063;-88
2023/10/09 10:13:27;;;;;;;10.70;2.93;;;;;;;25.75;40.36;100718.78;4920138;29;20660;-77
2023/10/09 10:19:07;;;;;;;8.35;2.92;;;;;;;26.00;39.12;100704.66;4931374;29;20034;-82
2023/10/09 10:21:39;;;;;;;10.98;2.75;;;;;;;26.25;38.36;100699.56;4932238;29;20031;-77
2023/10/09 10:24:31;;;;;;;9.68;3.25;;;;;;;26.36;37.74;100697.06;4923516;29;20055;-77
2023/10/09 10:28:00;;;;;;;8.97;2.70;;;;;;;26.51;37.75;100689.81;4910384;29;20024;-78
2023/10/09 10:30:12;;;;;;;8.77;2.90;;;;;;;26.77;37.57;100703.44;4900692;29;20044;-76
2023/10/09 10:32:53;;;;;;;7.72;2.75;;;;;;;26.90;36.35;100696.31;4914557;29;20700;-77
2023/10/09 10:35:31;;;;;;;10.60;2.60;;;;;;;27.09;36.89;100686.94;4914860;29;20036;-79
2023/10/09 10:38:11;;;;;;;8.55;3.00;;;;;;;27.26;36.28;100688.53;4921094;29;20087;-76
2023/10/09 10:40:46;;;;;;;11.30;3.47;;;;;;;27.35;36.30;100678.91;4915538;29;20032;-77
2023/10/09 10:43:47;;;;;;;10.38;3.08;;;;;;;27.37;36.12;100682.41;4921653;29;20040;-77
2023/10/09 10:46:23;;;;;;;8.98;3.30;;;;;;;27.62;35.11;100675.31;4900633;29;20025;-79
2023/10/09 10:48:59;;;;;;;7.88;2.95;;;;;;;27.82;34.71;100675.75;4898407;29;20025;-88
2023/10/09 10:51:39;;;;;;;9.98;3.20;;;;;;;27.94;34.47;100669.47;4909430;29;20032;-89
2023/10/09 10:57:19;;;;;;;8.63;2.90;;;;;;;28.19;34.02;100660.47;4877464;29;20040;-87
2023/10/09 10:59:45;;;;;;;9.18;3.38;;;;;;;28.38;34.03;100655.59;4904947;29;20103;-85
2023/10/09 11:07:12;;;;;;;9.13;3.00;;;;;;;28.74;33.08;100653.81;4910169;29;20580;-82
2023/10/09 11:12:39;;;;;;;8.05;3.00;;;;;;;28.91;32.63;100636.31;4911550;29;20143;-86
2023/10/09 11:15:29;;;;;;;11.88;4.03;;;;;;;29.05;33.10;100643.38;4910284;29;20028;-77
2023/10/09 11:18:08;;;;;;;8.30;3.28;;;;;;;29.19;32.70;100640.50;4910633;29;20059;-82
2023/10/09 11:20:35;;;;;;;12.67;2.60;;;;;;;29.43;32.60;100636.88;4911310;29;20024;-83
2023/10/09 11:25:49;;;;;;;17.15;3.55;;;;;;;29.68;32.10;100636.81;4916676;29;20054;-90
2023/10/09 11:31:11;;;;;;;8.50;3.15;;;;;;;30.00;31.88;100631.50;4918027;29;20095;-92
2023/10/09 11:33:53;;;;;;;8.70;3.43;;;;;;;30.00;31.55;100623.34;4919553;29;20152;-91
2023/10/09 11:36:31;;;;;;;8.07;2.75;;;;;;;30.14;31.28;100607.84;4916151;29;20036;-90
2023/10/09 11:39:13;;;;;;;10.73;3.40;;;;;;;30.23;31.09;100609.78;4915287;29;20063;-87
2023/10/09 11:41:42;;;;;;;11.07;3.28;;;;;;;30.15;31.26;100606.84;4915576;29;20465;-89
2023/10/09 11:44:18;;;;;;;8.57;2.80;;;;;;;30.21;31.09;100600.91;4921797;29;20023;-88
2023/10/09 11:47:22;;;;;;;7.77;3.07;;;;;;;30.25;31.35;100599.66;4935515;29;20635;-88
2023/10/09 11:52:37;;;;;;;9.30;3.10;;;;;;;30.44;30.26;100588.16;4934829;29;20099;-85
2023/10/09 11:55:06;;;;;;;11.40;3.25;;;;;;;30.59;30.41;100582.41;4931073;29;20020;-88
2023/10/09 11:57:33;;;;;;;10.05;3.30;;;;;;;30.76;30.52;100572.88;4933178;29;20075;-88
2023/10/09 12:00:00;;;;;;;11.83;3.33;;;;;;;30.96;30.28;100570.28;4934343;29;20048;-89
2023/10/09 12:02:26;;;;;;;10.45;3.05;;;;;;;31.14;30.17;100567.84;4934978;29;20028;-86
2023/10/09 12:04:54;;;;;;;9.23;3.20;;;;;;;31.27;29.54;100567.69;4918381;29;20111;-89
2023/10/09 12:07:20;;;;;;;10.63;3.50;;;;;;;31.52;28.87;100565.53;4915522;29;20040;-88
2023/10/09 12:09:47;;;;;;;12.02;3.55;;;;;;;31.49;29.24;100556.63;4915390;29;20048;-90
2023/10/09 12:12:13;;;;;;;11.33;3.50;;;;;;;31.52;29.26;100550.03;4915243;29;20446;-89
2023/10/09 12:14:39;;;;;;;12.25;3.53;;;;;;;31.63;29.41;100551.81;4914971;29;20111;-89
2023/10/09 12:17:06;;;;;;;16.20;3.33;;;;;;;31.81;28.66;100538.44;4915069;29;20031;-87
2023/10/09 12:19:36;;;;;;;12.68;3.55;;;;;;;31.89;29.09;100537.72;4915345;29;20044;-88
2023/10/09 12:22:03;;;;;;;11.02;4.00;;;;;;;32.10;28.26;100536.78;4914982;29;20035;-88
2023/10/09 12:24:30;;;;;;;17.08;4.18;;;;;;;32.13;28.08;100537.38;4897934;29;20527;-85
2023/10/09 12:26:56;;;;;;;21.55;3.70;;;;;;;32.22;27.66;100541.13;4913843;29;20031;-86
2023/10/09 12:29:23;;;;;;;13.37;3.73;;;;;;;32.23;27.71;100531.94;4914065;29;20040;-86
2023/10/09 12:31:57;;;;;;;16.95;3.72;;;;;;;32.32;27.98;100525.66;4914041;29;20032;-79
2023/10/09 12:34:26;;;;;;;12.48;3.67;;;;;;;32.41;27.81;100517.63;4912577;29;20064;-79
2023/10/09 12:36:54;;;;;;;11.50;3.63;;;;;;;32.53;27.48;100516.50;4915281;29;20036;-88
2023/10/09 12:39:23;;;;;;;13.43;3.70;;;;;;;32.62;27.43;100515.63;4914924;29;20098;-84
2023/10/09 12:41:48;;;;;;;15.97;3.87;;;;;;;32.77;27.44;100512.47;4914334;29;20103;-81
2023/10/09 12:44:18;;;;;;;11.80;3.78;;;;;;;32.88;27.11;100506.03;4913843;29;20160;-85
2023/10/09 12:46:54;;;;;;;10.15;4.20;;;;;;;32.95;26.83;100514.47;4912327;29;20075;-84
2023/10/09 12:49:25;;;;;;;10.70;3.47;;;;;;;33.02;26.81;100515.59;4914902;29;20028;-91
2023/10/09 12:51:54;;;;;;;11.38;3.58;;;;;;;33.02;27.08;100507.41;4913965;29;20027;-91
2023/10/09 12:54:20;;;;;;;14.77;4.35;;;;;;;33.10;26.32;100502.06;4913832;29;20035;-80
2023/10/09 12:56:49;;;;;;;24.98;4.50;;;;;;;33.16;26.17;100506.97;4913873;29;20039;-89
2023/10/09 12:59:15;;;;;;;10.83;4.10;;;;;;;33.15;26.38;100498.91;4915541;29;20024;-88
2023/10/09 13:01:44;;;;;;;9.18;4.00;;;;;;;33.22;26.15;100490.00;4914384;29;20032;-88
2023/10/09 13:04:16;;;;;;;11.67;4.23;;;;;;;33.21;25.96;100493.72;4903509;29;20029;-88
2023/10/09 13:06:45;;;;;;;11.38;3.85;;;;;;;33.20;26.05;100494.75;4913253;29;20016;-88
2023/10/09 13:09:11;;;;;;;15.55;4.00;;;;;;;33.25;26.25;100493.44;4925719;29;20040;-87
2023/10/09 13:11:37;;;;;;;10.05;3.85;;;;;;;33.19;25.85;100484.84;4918091;29;20055;-87
2023/10/09 13:14:11;;;;;;;10.15;3.90;;;;;;;33.20;25.88;100492.00;4915608;29;20497;-86
2023/10/09 13:16:37;;;;;;;13.60;4.13;;;;;;;33.28;25.36;100487.66;4913504;29;20020;-88
2023/10/09 13:19:09;;;;;;;13.88;3.92;;;;;;;33.33;25.33;100485.34;4913075;29;20016;-89
2023/10/09 13:21:37;;;;;;;8.90;4.15;;;;;;;33.39;24.73;100482.00;4913664;29;20032;-88
2023/10/09 13:24:03;;;;;;;11.05;3.55;;;;;;;33.43;24.90;100483.47;4913508;29;20027;-88
2023/10/09 13:26:34;;;;;;;9.53;3.27;;;;;;;33.44;24.43;100481.59;4913106;29;20103;-85
2023/10/09 13:29:01;;;;;;;10.27;3.60;;;;;;;33.44;24.59;100481.59;4897370;29;20024;-87
2023/10/09 13:31:27;;;;;;;9.13;3.85;;;;;;;33.43;24.38;100474.41;4910281;29;20052;-88
2023/10/09 13:33:58;;;;;;;32.97;5.70;;;;;;;33.48;24.17;100474.81;4909417;29;20416;-87
2023/10/09 13:36:31;;;;;;;8.55;3.70;;;;;;;33.53;24.23;100463.44;4913019;29;20036;-88
2023/10/09 13:39:26;;;;;;;10.40;3.90;;;;;;;33.53;23.81;100463.44;4911910;29;20075;-88
2023/10/09 13:41:59;;;;;;;8.50;3.58;;;;;;;33.59;24.17;100460.09;4912189;29;20067;-88
2023/10/09 13:44:29;;;;;;;13.85;3.92;;;;;;;33.64;24.11;100455.03;4905491;29;20048;-88
2023/10/09 13:46:56;;;;;;;14.48;3.67;;;;;;;33.68;23.93;100459.22;4913772;29;20032;-83
2023/10/09 13:49:22;;;;;;;9.20;3.55;;;;;;;33.77;23.89;100449.25;4913282;29;20036;-82
2023/10/09 13:51:51;;;;;;;7.97;3.30;;;;;;;33.84;23.60;100454.91;4913336;29;20505;-85
2023/10/09 13:54:30;;;;;;;9.57;3.60;;;;;;;33.86;23.66;100448.31;4913728;29;20091;-88
2023/10/09 13:56:56;;;;;;;9.82;3.20;;;;;;;33.95;23.51;100451.97;4925876;29;20539;-85
2023/10/09 13:59:25;;;;;;;10.05;3.50;;;;;;;34.09;23.63;100438.81;4932241;29;20035;-88
2023/10/09 14:01:56;;;;;;;8.40;3.40;;;;;;;34.18;23.20;100446.94;4932056;29;20067;-81
2023/10/09 14:04:23;;;;;;;7.80;3.03;;;;;;;34.24;22.90;100444.56;4902329;29;20479;-82
2023/10/09 14:06:49;;;;;;;9.18;3.08;;;;;;;34.19;22.94;100445.06;4913160;29;20202;-86
2023/10/09 14:09:38;;;;;;;11.50;3.58;;;;;;;34.18;22.94;100435.16;4912903;29;20501;-88
2023/10/09 14:12:11;;;;;;;9.18;3.60;;;;;;;34.21;22.37;100435.69;4913059;29;20032;-88
2023/10/09 14:14:47;;;;;;;9.07;3.50;;;;;;;34.20;22.65;100444.06;4912958;29;20024;-82
2023/10/09 14:17:13;;;;;;;11.70;3.65;;;;;;;34.27;22.63;100433.34;4895935;29;20036;-83
2023/10/09 14:19:41;;;;;;;8.50;3.50;;;;;;;34.22;22.46;100426.47;4913713;29;20079;-84